createdAt,value
2019-04-13T00:01:33.769Z,78.50
2019-04-13T00:04:02.259Z,78.60
2019-04-13T00:06:44.487Z,78.60
2019-04-13T00:09:14.603Z,78.70
2019-04-13T00:11:48.027Z,78.70
2019-04-13T00:14:17.773Z,78.60
2019-04-13T00:16:46.253Z,78.60
2019-04-13T00:19:14.647Z,78.60
2019-04-13T00:21:43.058Z,78.90
2019-04-13T00:24:11.450Z,79.00
2019-04-13T00:26:39.849Z,79.00
2019-04-13T00:29:08.342Z,78.80
2019-04-13T00:31:36.742Z,78.70
2019-04-13T00:34:05.404Z,79.10
2019-04-13T00:36:33.826Z,79.00
2019-04-13T00:39:02.231Z,79.00
2019-04-13T00:41:30.643Z,79.00
2019-04-13T00:43:59.037Z,78.80
2019-04-13T00:46:29.326Z,78.70
2019-04-13T00:48:57.734Z,78.70
2019-04-13T00:51:26.132Z,78.90
2019-04-13T00:53:54.575Z,79.40
2019-04-13T00:56:23.255Z,79.60
2019-04-13T00:58:51.650Z,79.60
2019-04-13T01:01:20.051Z,79.50
2019-04-13T01:03:48.510Z,79.50
2019-04-13T01:06:16.918Z,79.50
2019-04-13T01:08:45.322Z,79.70
2019-04-13T01:11:13.737Z,79.80
2019-04-13T01:13:42.137Z,79.80
2019-04-13T01:16:10.541Z,79.80
2019-04-13T01:18:38.942Z,79.90
2019-04-13T01:21:07.335Z,79.80
2019-04-13T01:23:35.800Z,79.80
2019-04-13T01:26:04.406Z,80.00
2019-04-13T01:28:32.852Z,80.00
2019-04-13T01:31:01.335Z,80.80
2019-04-13T01:33:29.829Z,80.00
2019-04-13T01:35:58.235Z,80.00
2019-04-13T01:38:26.625Z,80.00
2019-04-13T01:40:55.043Z,80.10
2019-04-13T01:43:24.415Z,80.20
2019-04-13T01:45:52.838Z,80.20
2019-04-13T01:48:21.260Z,80.40
2019-04-13T01:50:50.410Z,80.40
2019-04-13T01:53:18.828Z,80.50
2019-04-13T01:55:47.222Z,80.60
2019-04-13T01:58:15.622Z,80.90
2019-04-13T02:00:45.653Z,80.90
2019-04-13T02:03:14.081Z,81.10
2019-04-13T02:05:44.101Z,81.30
2019-04-13T02:08:14.146Z,81.80
2019-04-13T02:10:44.246Z,82.10
2019-04-13T02:13:12.709Z,82.10
2019-04-13T02:15:41.202Z,82.50
2019-04-13T02:18:09.595Z,82.70
2019-04-13T02:20:38.035Z,82.80
2019-04-13T02:23:06.450Z,83.00
2019-04-13T02:25:35.169Z,83.10
2019-04-13T02:28:03.586Z,83.40
2019-04-13T02:30:31.992Z,83.60
2019-04-13T02:33:00.450Z,83.60
2019-04-13T02:35:36.063Z,83.90
2019-04-13T02:37:59.095Z,84.20
2019-04-13T02:40:27.506Z,84.60
2019-04-13T02:42:55.918Z,84.80
2019-04-13T02:45:24.311Z,85.00
2019-04-13T02:47:52.702Z,85.30
2019-04-13T02:50:21.102Z,85.50
2019-04-13T02:52:49.514Z,86.00
2019-04-13T02:55:17.940Z,86.20
2019-04-13T02:57:46.350Z,86.30
2019-04-13T03:00:15.911Z,86.80
2019-04-13T03:02:44.525Z,87.20
2019-04-13T03:05:12.988Z,87.50
2019-04-13T03:07:41.682Z,87.70
2019-04-13T03:10:10.228Z,88.10
2019-04-13T03:12:38.757Z,88.40
2019-04-13T03:15:08.527Z,88.60
2019-04-13T03:17:38.819Z,88.80
2019-04-13T03:20:09.534Z,89.30
2019-04-13T03:22:37.935Z,89.70
2019-04-13T03:25:06.666Z,90.00
2019-04-13T03:27:35.071Z,90.10
2019-04-13T03:30:03.551Z,90.10
2019-04-13T03:32:32.037Z,90.30
2019-04-13T03:35:00.611Z,90.50
2019-04-13T03:37:29.078Z,90.60
2019-04-13T03:39:57.491Z,90.70
2019-04-13T03:42:26.038Z,90.80
2019-04-13T03:44:54.442Z,90.90
2019-04-13T03:47:22.872Z,91.00
2019-04-13T03:49:51.283Z,91.10
2019-04-13T03:52:19.778Z,91.30
2019-04-13T03:54:48.175Z,91.50
2019-04-13T03:57:16.569Z,91.60
2019-04-13T03:59:44.982Z,91.70
2019-04-13T04:02:13.394Z,91.70
2019-04-13T04:04:41.802Z,91.90
2019-04-13T04:07:10.238Z,91.90
2019-04-13T04:09:38.882Z,92.00
2019-04-13T04:12:09.974Z,92.10
2019-04-13T04:14:37.423Z,92.10
2019-04-13T04:17:05.826Z,92.20
2019-04-13T04:19:34.237Z,92.20
2019-04-13T04:22:02.879Z,92.20
2019-04-13T04:24:31.315Z,92.30
2019-04-13T04:26:59.778Z,92.40
2019-04-13T04:29:28.300Z,92.40
2019-04-13T04:31:56.670Z,92.60
2019-04-13T04:34:25.134Z,92.70
2019-04-13T04:36:53.526Z,92.80
2019-04-13T04:39:21.945Z,92.80
2019-04-13T04:41:50.346Z,92.80
2019-04-13T04:44:18.807Z,92.90
2019-04-13T04:46:47.215Z,93.00
2019-04-13T04:49:15.631Z,93.00
2019-04-13T04:51:46.606Z,93.20
2019-04-13T04:54:14.158Z,93.30
2019-04-13T04:56:42.711Z,93.30
2019-04-13T04:59:11.099Z,93.30
2019-04-13T05:01:39.751Z,93.30
2019-04-13T05:04:08.146Z,93.30
2019-04-13T05:06:36.960Z,93.30
2019-04-13T05:09:06.191Z,93.40
2019-04-13T05:11:34.940Z,93.40
2019-04-13T05:14:03.346Z,93.40
2019-04-13T05:16:31.736Z,93.50
2019-04-13T05:19:00.131Z,93.40
2019-04-13T05:21:28.550Z,93.40
2019-04-13T05:23:56.978Z,93.40
2019-04-13T05:26:25.383Z,93.40
2019-04-13T05:28:53.777Z,93.30
2019-04-13T05:31:22.184Z,93.30
2019-04-13T05:33:51.878Z,93.30
2019-04-13T05:36:20.417Z,93.30
2019-04-13T05:38:48.870Z,93.20
2019-04-13T05:41:17.294Z,93.20
2019-04-13T05:43:45.707Z,93.10
2019-04-13T05:46:14.115Z,93.00
2019-04-13T05:48:42.798Z,92.90
2019-04-13T05:51:11.190Z,92.80
2019-04-13T05:53:39.590Z,92.70
2019-04-13T05:56:08.281Z,92.60
2019-04-13T05:58:36.670Z,92.50
2019-04-13T06:01:05.062Z,92.40
2019-04-13T06:03:33.738Z,92.30
2019-04-13T06:06:02.140Z,92.20
2019-04-13T06:08:30.535Z,92.00
2019-04-13T06:10:58.946Z,91.90
2019-04-13T06:13:27.358Z,91.70
2019-04-13T06:15:55.750Z,91.60
2019-04-13T06:18:24.149Z,91.40
2019-04-13T06:20:52.646Z,91.20
2019-04-13T06:23:21.242Z,91.00
2019-04-13T06:25:49.711Z,90.90
2019-04-13T06:28:18.109Z,90.70
2019-04-13T06:30:48.146Z,90.60
2019-04-13T06:33:18.219Z,90.50
2019-04-13T06:35:46.630Z,90.30
2019-04-13T06:38:15.244Z,90.20
2019-04-13T06:40:43.639Z,90.10
2019-04-13T06:43:12.308Z,90.00
2019-04-13T06:45:40.722Z,89.90
2019-04-13T06:48:09.119Z,89.90
2019-04-13T06:50:37.522Z,90.00
2019-04-13T06:53:08.115Z,90.00
2019-04-13T06:55:36.266Z,90.00
2019-04-13T06:58:04.806Z,90.00
2019-04-13T07:00:33.223Z,90.00
2019-04-13T07:03:01.614Z,90.10
2019-04-13T07:05:30.022Z,90.20
2019-04-13T07:08:12.186Z,90.40
2019-04-13T07:10:50.046Z,90.70
2019-04-13T07:13:37.072Z,91.00
2019-04-13T07:16:16.479Z,91.00
2019-04-13T07:18:44.885Z,91.10
2019-04-13T07:21:13.274Z,91.10
2019-04-13T07:23:41.993Z,91.30
2019-04-13T07:26:11.252Z,90.90
2019-04-13T07:28:40.155Z,90.60
2019-04-13T07:31:08.619Z,90.30
2019-04-13T07:33:37.163Z,90.30
2019-04-13T07:36:05.565Z,90.30
2019-04-13T07:38:34.042Z,90.30
2019-04-13T07:41:02.447Z,90.20
2019-04-13T07:43:32.123Z,90.30
2019-04-13T07:46:20.729Z,90.20
2019-04-13T07:49:02.555Z,90.70
2019-04-13T07:51:32.588Z,90.60
2019-04-13T07:54:00.984Z,90.90
2019-04-13T07:56:32.089Z,91.30
2019-04-13T07:58:59.509Z,91.70
2019-04-13T08:01:28.016Z,92.20
2019-04-13T08:03:56.505Z,92.60
2019-04-13T08:06:26.036Z,93.20
2019-04-13T08:08:54.806Z,93.50
2019-04-13T08:11:23.286Z,93.60
2019-04-13T08:13:52.162Z,93.60
2019-04-13T08:16:24.865Z,93.70
2019-04-13T08:19:07.559Z,93.50
2019-04-13T08:21:37.674Z,93.30
2019-04-13T08:24:06.071Z,93.00
2019-04-13T08:26:34.629Z,92.40
2019-04-13T08:29:03.028Z,92.10
2019-04-13T08:31:31.516Z,92.10
2019-04-13T08:34:00.098Z,91.70
2019-04-13T08:36:28.495Z,91.50
2019-04-13T08:38:59.105Z,91.00
2019-04-13T08:41:27.479Z,90.70
2019-04-13T08:43:55.884Z,90.40
2019-04-13T08:46:24.547Z,90.00
2019-04-13T08:48:52.939Z,88.40
2019-04-13T08:51:21.338Z,87.70
2019-04-13T08:53:49.767Z,85.70
2019-04-13T08:56:18.154Z,84.50
2019-04-13T08:58:47.161Z,84.30
2019-04-13T09:01:16.014Z,82.90
2019-04-13T09:03:44.626Z,82.20
2019-04-13T09:06:16.581Z,82.90
2019-04-13T09:08:43.134Z,82.80
2019-04-13T09:11:14.275Z,82.20
2019-04-13T09:13:42.063Z,83.10
2019-04-13T09:16:10.770Z,83.30
2019-04-13T09:18:46.933Z,82.90
2019-04-13T09:21:29.674Z,81.50
2019-04-13T09:23:58.066Z,79.70
2019-04-13T09:26:26.461Z,79.70
2019-04-13T09:28:54.893Z,79.50
2019-04-13T09:31:25.481Z,81.20
2019-04-13T09:33:53.454Z,80.00
2019-04-13T09:36:21.866Z,79.60
2019-04-13T09:38:50.287Z,80.10
2019-04-13T09:41:18.698Z,80.70
2019-04-13T09:44:04.076Z,81.20
2019-04-13T09:46:32.536Z,82.00
2019-04-13T09:49:00.942Z,81.10
2019-04-13T09:51:29.362Z,81.00
2019-04-13T09:53:57.836Z,79.60
2019-04-13T09:56:36.701Z,76.50
2019-04-13T09:58:56.450Z,75.80
2019-04-13T10:01:24.887Z,74.70
2019-04-13T10:03:53.299Z,73.80
2019-04-13T10:06:21.703Z,72.40
2019-04-13T10:08:56.092Z,71.80
2019-04-13T10:11:21.915Z,69.60
2019-04-13T10:13:54.641Z,67.90
2019-04-13T10:16:36.958Z,66.20
2019-04-13T10:19:05.659Z,66.30
2019-04-13T10:21:34.060Z,64.90
2019-04-13T10:24:02.570Z,64.50
2019-04-13T10:26:30.974Z,63.70
2019-04-13T10:28:59.390Z,62.50
2019-04-13T10:31:27.806Z,63.20
2019-04-13T10:33:56.206Z,62.90
2019-04-13T10:36:24.808Z,62.40
2019-04-13T10:38:53.217Z,60.80
2019-04-13T10:41:21.720Z,60.90
2019-04-13T10:43:50.214Z,60.10
2019-04-13T10:46:23.194Z,60.00
2019-04-13T10:49:05.375Z,60.00
2019-04-13T10:51:38.463Z,59.90
2019-04-13T10:54:06.874Z,60.50
2019-04-13T10:56:35.308Z,59.60
2019-04-13T10:59:03.777Z,60.40
2019-04-13T11:01:32.197Z,61.40
2019-04-13T11:04:00.674Z,61.20
2019-04-13T11:06:29.075Z,61.90
2019-04-13T11:08:57.583Z,62.50
2019-04-13T11:11:26.001Z,63.30
2019-04-13T11:13:54.414Z,63.80
2019-04-13T11:16:22.830Z,63.30
2019-04-13T11:18:51.315Z,62.80
2019-04-13T11:21:19.779Z,62.20
2019-04-13T11:23:48.187Z,62.00
2019-04-13T11:26:17.079Z,62.90
2019-04-13T11:28:45.478Z,64.00
2019-04-13T11:31:13.955Z,63.80
2019-04-13T11:33:42.746Z,63.00
2019-04-13T11:36:11.246Z,63.70
2019-04-13T11:38:39.790Z,64.20
2019-04-13T11:41:09.837Z,64.10
2019-04-13T11:43:56.459Z,64.30
2019-04-13T11:46:29.164Z,64.70
2019-04-13T11:49:07.563Z,65.40
2019-04-13T11:51:36.138Z,65.90
2019-04-13T11:54:06.107Z,67.00
2019-04-13T11:56:37.065Z,68.10
2019-04-13T11:59:04.818Z,69.20
2019-04-13T12:01:51.058Z,69.90
2019-04-13T12:04:31.138Z,71.60
2019-04-13T12:07:17.959Z,72.20
2019-04-13T12:10:06.476Z,73.30
2019-04-13T12:12:51.889Z,74.00
2019-04-13T12:15:27.747Z,73.70
2019-04-13T12:18:00.673Z,73.60
2019-04-13T12:20:30.718Z,73.60
2019-04-13T12:22:59.235Z,72.90
2019-04-13T12:25:27.956Z,72.00
2019-04-13T12:27:56.410Z,71.80
2019-04-13T12:30:29.588Z,72.10
2019-04-13T12:32:57.982Z,72.40
2019-04-13T12:35:26.384Z,71.90
2019-04-13T12:37:54.908Z,72.20
2019-04-13T12:40:27.794Z,74.20
2019-04-13T12:42:56.188Z,75.10
2019-04-13T12:45:24.866Z,76.20
2019-04-13T12:47:53.435Z,77.30
2019-04-13T12:50:41.289Z,77.90
2019-04-13T12:53:09.683Z,77.90
2019-04-13T12:55:38.098Z,78.50
2019-04-13T12:58:06.513Z,80.20
2019-04-13T13:00:39.166Z,79.40
2019-04-13T13:03:09.712Z,78.20
2019-04-13T13:05:39.866Z,75.60
2019-04-13T13:08:08.887Z,74.00
2019-04-13T13:10:37.383Z,72.30
2019-04-13T13:13:05.782Z,72.60
2019-04-13T13:15:36.505Z,72.30
2019-04-13T13:18:04.324Z,72.90
2019-04-13T13:20:32.730Z,73.40
2019-04-13T13:23:01.138Z,74.70
2019-04-13T13:25:29.542Z,76.20
2019-04-13T13:27:57.961Z,77.50
2019-04-13T13:30:26.456Z,78.30
2019-04-13T13:32:56.730Z,79.30
2019-04-13T13:35:25.143Z,80.50
2019-04-13T13:37:53.637Z,80.90
2019-04-13T13:40:31.229Z,80.60
2019-04-13T13:42:52.226Z,79.90
2019-04-13T13:45:25.187Z,80.00
2019-04-13T13:47:50.902Z,80.70
2019-04-13T13:50:21.996Z,80.70
2019-04-13T13:52:49.448Z,81.60
2019-04-13T13:55:17.955Z,83.20
2019-04-13T13:58:07.441Z,84.20
2019-04-13T14:00:43.478Z,85.10
2019-04-13T14:03:12.116Z,87.30
2019-04-13T14:05:40.527Z,88.50
2019-04-13T14:08:08.919Z,89.50
2019-04-13T14:10:42.762Z,90.30
2019-04-13T14:13:07.497Z,90.80
2019-04-13T14:15:35.902Z,91.30
2019-04-13T14:18:04.304Z,91.70
2019-04-13T14:20:34.313Z,92.20
2019-04-13T14:23:02.848Z,92.60
2019-04-13T14:25:31.247Z,92.90
2019-04-13T14:27:59.717Z,93.20
2019-04-13T14:30:28.126Z,93.50
2019-04-13T14:32:56.670Z,93.90
2019-04-13T14:35:25.154Z,94.40
2019-04-13T14:37:53.557Z,94.60
2019-04-13T14:40:21.981Z,94.70
2019-04-13T14:42:50.399Z,94.70
2019-04-13T14:45:18.875Z,94.70
2019-04-13T14:47:47.276Z,94.70
2019-04-13T14:50:16.015Z,95.00
2019-04-13T14:52:44.409Z,95.20
2019-04-13T14:55:12.809Z,95.60
2019-04-13T14:57:41.598Z,96.00
2019-04-13T15:00:10.411Z,96.40
2019-04-13T15:02:38.840Z,96.70
2019-04-13T15:05:14.550Z,97.00
2019-04-13T15:07:40.452Z,97.20
2019-04-13T15:10:09.141Z,97.40
2019-04-13T15:12:37.729Z,97.60
2019-04-13T15:15:07.293Z,97.70
2019-04-13T15:17:39.762Z,97.70
2019-04-13T15:20:15.167Z,97.50
2019-04-13T15:22:39.344Z,97.50
2019-04-13T15:25:08.931Z,97.50
2019-04-13T15:27:39.954Z,97.70
2019-04-13T15:30:11.592Z,97.80
2019-04-13T15:32:38.794Z,97.70
2019-04-13T15:35:11.461Z,97.60
2019-04-13T15:37:42.225Z,97.60
2019-04-13T15:40:09.065Z,97.60
2019-04-13T15:42:43.842Z,97.60
2019-04-13T15:45:07.856Z,97.70
2019-04-13T15:47:36.870Z,97.70
2019-04-13T15:50:07.425Z,97.70
2019-04-13T15:52:36.935Z,97.80
2019-04-13T15:55:07.195Z,97.90
2019-04-13T15:57:35.753Z,98.20
2019-04-13T16:00:07.073Z,98.30
2019-04-13T16:02:37.881Z,98.60
2019-04-13T16:05:07.274Z,98.80
2019-04-13T16:07:36.457Z,98.90
2019-04-13T16:10:24.808Z,98.80
2019-04-13T16:12:57.924Z,99.00
2019-04-13T16:15:38.098Z,98.80
2019-04-13T16:18:06.742Z,98.80
2019-04-13T16:20:35.900Z,98.90
2019-04-13T16:23:04.785Z,99.00
2019-04-13T16:25:33.771Z,99.20
2019-04-13T16:28:17.937Z,99.30
2019-04-13T16:30:48.242Z,99.40
2019-04-13T16:33:19.405Z,99.50
2019-04-13T16:35:49.622Z,99.60
2019-04-13T16:38:18.027Z,99.60
2019-04-13T16:40:46.495Z,99.70
2019-04-13T16:43:15.882Z,99.90
2019-04-13T16:45:46.388Z,99.90
2019-04-13T16:48:16.748Z,99.90
2019-04-13T16:50:46.896Z,99.90
2019-04-13T16:53:35.217Z,99.90
2019-04-13T16:56:05.292Z,99.90
2019-04-13T16:58:36.322Z,99.90
2019-04-13T17:01:09.689Z,99.90
2019-04-13T17:03:40.137Z,99.90
2019-04-13T17:06:11.121Z,99.90
2019-04-13T17:08:39.655Z,99.90
2019-04-13T17:11:09.121Z,99.90
2019-04-13T17:13:37.542Z,99.90
2019-04-13T17:16:07.090Z,99.90
2019-04-13T17:18:38.094Z,99.90
2019-04-13T17:21:08.429Z,99.90
2019-04-13T17:23:50.341Z,99.90
2019-04-13T17:26:20.815Z,99.90
2019-04-13T17:28:51.627Z,99.90
2019-04-13T17:31:37.819Z,99.90
2019-04-13T17:34:09.222Z,99.90
2019-04-13T17:36:39.866Z,99.90
2019-04-13T17:39:08.773Z,99.90
2019-04-13T17:41:38.966Z,99.90
2019-04-13T17:44:10.231Z,99.90
2019-04-13T17:46:57.332Z,99.90
2019-04-13T17:49:27.824Z,99.90
2019-04-13T17:52:15.213Z,99.90
2019-04-13T17:54:51.890Z,99.90
2019-04-13T17:57:25.063Z,99.90
2019-04-13T18:00:01.741Z,99.90
2019-04-13T18:02:32.194Z,99.90
2019-04-13T18:05:02.481Z,99.90
2019-04-13T18:07:48.788Z,99.90
2019-04-13T18:10:30.105Z,99.90
2019-04-13T18:13:05.678Z,99.90
2019-04-13T18:15:51.091Z,99.90
2019-04-13T18:18:37.458Z,99.90
2019-04-13T18:21:05.986Z,99.90
2019-04-13T18:23:34.553Z,99.90
2019-04-13T18:26:04.358Z,99.90
2019-04-13T18:28:33.722Z,99.90
2019-04-13T18:31:02.229Z,99.90
2019-04-13T18:33:30.652Z,99.90
2019-04-13T18:35:59.038Z,99.90
2019-04-13T18:38:28.895Z,99.90
2019-04-13T18:40:57.415Z,99.90
2019-04-13T18:43:29.391Z,99.90
2019-04-13T18:45:56.032Z,99.90
2019-04-13T18:48:25.078Z,99.90
2019-04-13T18:50:53.956Z,99.90
2019-04-13T18:53:23.385Z,99.90
2019-04-13T18:55:51.874Z,99.90
2019-04-13T18:58:20.710Z,99.90
2019-04-13T19:00:49.291Z,99.90
2019-04-13T19:03:17.761Z,99.90
2019-04-13T19:05:46.580Z,99.90
2019-04-13T19:08:14.969Z,99.90
2019-04-13T19:10:43.511Z,99.90
2019-04-13T19:13:12.017Z,99.90
2019-04-13T19:15:40.446Z,99.90
2019-04-13T19:18:08.881Z,99.90
2019-04-13T19:20:37.280Z,99.90
2019-04-13T19:23:05.677Z,99.90
2019-04-13T19:25:34.090Z,99.90
2019-04-13T19:28:02.571Z,99.90
2019-04-13T19:30:33.354Z,99.90
2019-04-13T19:33:01.210Z,99.90
2019-04-13T19:35:29.655Z,99.90
2019-04-13T19:37:58.121Z,99.90
2019-04-13T19:40:26.530Z,99.90
2019-04-13T19:42:55.086Z,99.90
2019-04-13T19:45:23.531Z,99.90
2019-04-13T19:47:52.008Z,99.90
2019-04-13T19:50:20.438Z,99.90
2019-04-13T19:52:59.500Z,99.90
2019-04-13T19:55:27.968Z,99.90
2019-04-13T19:57:56.518Z,99.90
2019-04-13T20:00:26.556Z,99.90
2019-04-13T20:02:54.970Z,99.90
2019-04-13T20:05:23.402Z,99.90
2019-04-13T20:07:51.822Z,99.90
2019-04-13T20:10:20.218Z,99.90
2019-04-13T20:12:49.019Z,99.90
2019-04-13T20:15:18.465Z,99.90
2019-04-13T20:17:47.249Z,99.90
2019-04-13T20:20:15.751Z,99.90
2019-04-13T20:22:44.155Z,99.90
2019-04-13T20:25:13.547Z,99.90
2019-04-13T20:27:43.372Z,99.90
2019-04-13T20:30:13.053Z,99.90
2019-04-13T20:32:42.726Z,99.90
2019-04-13T20:35:13.210Z,99.90
2019-04-13T20:37:42.630Z,99.90
2019-04-13T20:40:14.110Z,99.90
2019-04-13T20:42:43.693Z,99.90
2019-04-13T20:45:13.539Z,99.90
2019-04-13T20:47:42.034Z,99.90
2019-04-13T20:50:10.497Z,99.90
2019-04-13T20:52:38.904Z,99.90
2019-04-13T20:55:10.953Z,99.90
2019-04-13T20:57:37.591Z,99.90
2019-04-13T21:00:07.991Z,99.90
2019-04-13T21:02:37.365Z,99.90
2019-04-13T21:05:07.851Z,99.90
2019-04-13T21:07:36.540Z,99.90
2019-04-13T21:10:06.610Z,99.90
2019-04-13T21:12:35.137Z,99.90
2019-04-13T21:15:05.423Z,99.90
2019-04-13T21:17:35.305Z,99.90
2019-04-13T21:20:05.948Z,99.90
2019-04-13T21:22:35.602Z,99.90
2019-04-13T21:25:05.667Z,99.90
2019-04-13T21:27:35.539Z,99.90
2019-04-13T21:30:05.474Z,99.90
2019-04-13T21:32:33.875Z,99.90
2019-04-13T21:35:03.565Z,99.90
2019-04-13T21:37:33.387Z,99.90
2019-04-13T21:40:03.420Z,99.90
2019-04-13T21:42:31.915Z,99.90
2019-04-13T21:45:01.419Z,99.90
2019-04-13T21:47:31.181Z,99.90
2019-04-13T21:50:02.458Z,99.90
2019-04-13T21:52:38.406Z,99.90
2019-04-13T21:55:07.259Z,99.90
2019-04-13T21:57:35.656Z,99.90
2019-04-13T22:00:09.462Z,99.90
2019-04-13T22:02:37.638Z,99.90
2019-04-13T22:05:07.552Z,99.90
2019-04-13T22:07:37.209Z,99.90
2019-04-13T22:10:09.418Z,99.90
2019-04-13T22:12:39.254Z,99.90
2019-04-13T22:15:10.942Z,99.90
2019-04-13T22:17:38.331Z,99.90
2019-04-13T22:20:08.086Z,99.90
2019-04-13T22:22:37.776Z,99.90
2019-04-13T22:25:06.690Z,99.90
2019-04-13T22:27:48.319Z,99.90
2019-04-13T22:30:10.218Z,99.90
2019-04-13T22:32:43.327Z,99.90
2019-04-13T22:35:13.453Z,99.90
2019-04-13T22:37:42.799Z,99.90
2019-04-13T22:40:12.873Z,99.90
2019-04-13T22:42:42.530Z,99.90
2019-04-13T22:45:14.560Z,99.90
2019-04-13T22:47:43.379Z,99.90
2019-04-13T22:50:28.477Z,99.90
2019-04-13T22:53:08.905Z,99.90
2019-04-13T22:55:45.196Z,99.90
2019-04-13T22:58:14.030Z,99.90
2019-04-13T23:00:54.028Z,99.90
2019-04-13T23:03:22.668Z,99.90
2019-04-13T23:05:52.334Z,99.90
2019-04-13T23:08:20.827Z,99.90
2019-04-13T23:10:49.241Z,99.90
2019-04-13T23:13:18.880Z,99.90
2019-04-13T23:15:47.435Z,99.90
2019-04-13T23:18:16.942Z,99.90
2019-04-13T23:20:45.505Z,99.90
2019-04-13T23:23:13.918Z,99.90
2019-04-13T23:25:42.318Z,99.90
2019-04-13T23:28:11.817Z,99.90
2019-04-13T23:30:40.319Z,99.90
2019-04-13T23:33:08.714Z,99.90
2019-04-13T23:35:37.115Z,99.90
2019-04-13T23:38:05.600Z,99.90
2019-04-13T23:40:35.228Z,99.90
2019-04-13T23:43:04.000Z,99.90
2019-04-13T23:45:36.746Z,99.90
2019-04-13T23:48:02.675Z,99.90
2019-04-13T23:50:31.105Z,99.90
2019-04-13T23:53:00.816Z,99.90
2019-04-13T23:55:31.442Z,99.90
2019-04-13T23:58:17.145Z,99.90
